CheckWX is a tool to help pilots better visualize weather data.  It is not intended as a substitute for an official pre-flight weather briefing.

05:16:56 UTC

ZSHC TAF
Hangzhou Xiaoshan International Airport
Hangzhou, China
TAF ZSHC 231920Z 2400/2424 04003MPS 3000 BR NSC TX12/2406Z TN05/2421Z

Feb-24@
00:00 UTC

Feb-24 @ 00:00 UTC

Feb-25@
00:00 UTC

Feb-25 @ 00:00 UTC

TAF ZSHC 231920Z 2400/2424 04003MPS 3000 BR NSC TX12/2406Z TN05/2421Z
Wind
  • 040° at 6 KTS
Conditions
Mist
Cloud Levels
  • No significant clouds